sensor_id;sensor_type;location;lat;lon;timestamp;P1;durP1;ratioP1;P2;durP2;ratioP2
59310;SDS011;45078;51.654;21.250;2024-02-26T00:01:01;12.43;;;6.30;;
59310;SDS011;45078;51.654;21.250;2024-02-26T00:03:27;14.90;;;6.85;;
59310;SDS011;45078;51.654;21.250;2024-02-26T00:05:53;15.35;;;6.45;;
59310;SDS011;45078;51.654;21.250;2024-02-26T00:08:18;15.50;;;6.57;;
59310;SDS011;45078;51.654;21.250;2024-02-26T00:10:44;14.55;;;6.35;;
59310;SDS011;45078;51.654;21.250;2024-02-26T00:13:09;12.30;;;6.70;;
59310;SDS011;45078;51.654;21.250;2024-02-26T00:15:35;17.38;;;7.53;;
59310;SDS011;45078;51.654;21.250;2024-02-26T00:18:01;16.02;;;7.30;;
59310;SDS011;45078;51.654;21.250;2024-02-26T00:20:27;15.27;;;7.07;;
59310;SDS011;45078;51.654;21.250;2024-02-26T00:22:52;16.85;;;7.32;;
59310;SDS011;45078;51.654;21.250;2024-02-26T00:25:18;13.90;;;6.93;;
59310;SDS011;45078;51.654;21.250;2024-02-26T00:27:44;13.07;;;6.68;;
59310;SDS011;45078;51.654;21.250;2024-02-26T00:30:09;14.70;;;6.10;;
59310;SDS011;45078;51.654;21.250;2024-02-26T00:32:35;14.63;;;6.00;;
59310;SDS011;45078;51.654;21.250;2024-02-26T00:35:01;12.45;;;6.22;;
59310;SDS011;45078;51.654;21.250;2024-02-26T00:37:27;12.93;;;6.53;;
59310;SDS011;45078;51.654;21.250;2024-02-26T00:39:52;15.27;;;6.95;;
59310;SDS011;45078;51.654;21.250;2024-02-26T00:42:19;17.83;;;6.78;;
59310;SDS011;45078;51.654;21.250;2024-02-26T00:44:44;13.00;;;7.13;;
59310;SDS011;45078;51.654;21.250;2024-02-26T00:47:10;11.70;;;6.45;;
59310;SDS011;45078;51.654;21.250;2024-02-26T00:49:36;13.52;;;6.93;;
59310;SDS011;45078;51.654;21.250;2024-02-26T00:52:02;12.82;;;6.80;;
59310;SDS011;45078;51.654;21.250;2024-02-26T00:54:28;11.90;;;6.40;;
59310;SDS011;45078;51.654;21.250;2024-02-26T00:56:54;16.65;;;7.30;;
59310;SDS011;45078;51.654;21.250;2024-02-26T00:59:20;14.90;;;7.43;;
59310;SDS011;45078;51.654;21.250;2024-02-26T01:01:45;15.82;;;8.02;;
59310;SDS011;45078;51.654;21.250;2024-02-26T01:04:11;19.35;;;8.05;;
59310;SDS011;45078;51.654;21.250;2024-02-26T01:06:37;14.93;;;6.85;;
59310;SDS011;45078;51.654;21.250;2024-02-26T01:09:03;18.10;;;8.02;;
59310;SDS011;45078;51.654;21.250;2024-02-26T01:11:28;14.38;;;7.93;;
59310;SDS011;45078;51.654;21.250;2024-02-26T01:13:54;16.90;;;6.97;;
59310;SDS011;45078;51.654;21.250;2024-02-26T01:16:22;17.38;;;7.85;;
59310;SDS011;45078;51.654;21.250;2024-02-26T01:18:48;12.73;;;6.25;;
59310;SDS011;45078;51.654;21.250;2024-02-26T01:21:14;13.05;;;6.75;;
59310;SDS011;45078;51.654;21.250;2024-02-26T01:23:40;15.10;;;7.10;;
59310;SDS011;45078;51.654;21.250;2024-02-26T01:26:05;15.07;;;6.90;;
59310;SDS011;45078;51.654;21.250;2024-02-26T01:28:31;14.02;;;6.55;;
59310;SDS011;45078;51.654;21.250;2024-02-26T01:30:57;15.30;;;6.72;;
59310;SDS011;45078;51.654;21.250;2024-02-26T01:33:23;20.13;;;7.60;;
59310;SDS011;45078;51.654;21.250;2024-02-26T01:35:50;15.55;;;6.78;;
59310;SDS011;45078;51.654;21.250;2024-02-26T01:38:16;15.40;;;6.53;;
59310;SDS011;45078;51.654;21.250;2024-02-26T01:40:41;17.40;;;7.13;;
59310;SDS011;45078;51.654;21.250;2024-02-26T01:43:07;14.25;;;6.65;;
59310;SDS011;45078;51.654;21.250;2024-02-26T01:45:33;18.02;;;6.32;;
59310;SDS011;45078;51.654;21.250;2024-02-26T01:47:58;15.43;;;6.35;;
59310;SDS011;45078;51.654;21.250;2024-02-26T01:50:24;17.40;;;6.75;;
59310;SDS011;45078;51.654;21.250;2024-02-26T01:52:51;13.23;;;6.20;;
59310;SDS011;45078;51.654;21.250;2024-02-26T01:55:18;18.20;;;7.10;;
59310;SDS011;45078;51.654;21.250;2024-02-26T01:57:45;15.15;;;6.68;;
59310;SDS011;45078;51.654;21.250;2024-02-26T02:00:12;17.08;;;7.85;;
59310;SDS011;45078;51.654;21.250;2024-02-26T02:02:39;18.02;;;7.65;;
59310;SDS011;45078;51.654;21.250;2024-02-26T02:05:07;16.95;;;8.27;;
59310;SDS011;45078;51.654;21.250;2024-02-26T02:07:35;15.90;;;7.68;;
59310;SDS011;45078;51.654;21.250;2024-02-26T02:10:01;19.25;;;8.23;;
59310;SDS011;45078;51.654;21.250;2024-02-26T02:12:27;16.50;;;8.20;;
59310;SDS011;45078;51.654;21.250;2024-02-26T02:14:53;15.45;;;7.70;;
59310;SDS011;45078;51.654;21.250;2024-02-26T02:17:19;16.63;;;7.78;;
59310;SDS011;45078;51.654;21.250;2024-02-26T02:19:45;20.10;;;8.50;;
59310;SDS011;45078;51.654;21.250;2024-02-26T02:22:11;18.52;;;8.13;;
59310;SDS011;45078;51.654;21.250;2024-02-26T02:24:36;16.35;;;7.50;;
59310;SDS011;45078;51.654;21.250;2024-02-26T02:27:02;19.67;;;7.55;;
59310;SDS011;45078;51.654;21.250;2024-02-26T02:29:28;16.92;;;7.68;;
59310;SDS011;45078;51.654;21.250;2024-02-26T02:31:54;15.65;;;7.38;;
59310;SDS011;45078;51.654;21.250;2024-02-26T02:34:21;15.77;;;7.88;;
59310;SDS011;45078;51.654;21.250;2024-02-26T02:36:48;12.63;;;6.60;;
59310;SDS011;45078;51.654;21.250;2024-02-26T02:39:15;13.80;;;6.40;;
59310;SDS011;45078;51.654;21.250;2024-02-26T02:41:41;14.75;;;6.93;;
59310;SDS011;45078;51.654;21.250;2024-02-26T02:44:06;23.00;;;7.68;;
59310;SDS011;45078;51.654;21.250;2024-02-26T02:46:32;13.60;;;7.15;;
59310;SDS011;45078;51.654;21.250;2024-02-26T02:48:58;14.38;;;7.32;;
59310;SDS011;45078;51.654;21.250;2024-02-26T02:51:24;18.95;;;7.05;;
59310;SDS011;45078;51.654;21.250;2024-02-26T02:53:49;16.75;;;7.18;;
59310;SDS011;45078;51.654;21.250;2024-02-26T02:56:15;15.77;;;6.82;;
59310;SDS011;45078;51.654;21.250;2024-02-26T02:58:41;15.60;;;6.72;;
59310;SDS011;45078;51.654;21.250;2024-02-26T03:01:06;17.48;;;7.80;;
59310;SDS011;45078;51.654;21.250;2024-02-26T03:03:32;16.83;;;7.15;;
59310;SDS011;45078;51.654;21.250;2024-02-26T03:05:58;17.67;;;7.40;;
59310;SDS011;45078;51.654;21.250;2024-02-26T03:08:24;13.48;;;7.18;;
59310;SDS011;45078;51.654;21.250;2024-02-26T03:10:51;15.77;;;8.07;;
59310;SDS011;45078;51.654;21.250;2024-02-26T03:13:16;15.05;;;7.00;;
59310;SDS011;45078;51.654;21.250;2024-02-26T03:15:42;21.67;;;8.55;;
59310;SDS011;45078;51.654;21.250;2024-02-26T03:18:08;17.52;;;8.02;;
59310;SDS011;45078;51.654;21.250;2024-02-26T03:20:34;15.57;;;7.72;;
59310;SDS011;45078;51.654;21.250;2024-02-26T03:22:59;16.67;;;7.95;;
59310;SDS011;45078;51.654;21.250;2024-02-26T03:25:25;17.30;;;6.68;;
59310;SDS011;45078;51.654;21.250;2024-02-26T03:27:51;18.83;;;8.07;;
59310;SDS011;45078;51.654;21.250;2024-02-26T03:30:16;17.88;;;7.97;;
59310;SDS011;45078;51.654;21.250;2024-02-26T03:32:42;16.42;;;6.90;;
59310;SDS011;45078;51.654;21.250;2024-02-26T03:35:08;14.65;;;7.25;;
59310;SDS011;45078;51.654;21.250;2024-02-26T03:37:34;14.73;;;7.05;;
59310;SDS011;45078;51.654;21.250;2024-02-26T03:39:59;19.10;;;7.90;;
59310;SDS011;45078;51.654;21.250;2024-02-26T03:42:26;19.05;;;7.97;;
59310;SDS011;45078;51.654;21.250;2024-02-26T03:44:52;34.25;;;11.93;;
59310;SDS011;45078;51.654;21.250;2024-02-26T03:47:17;22.05;;;9.85;;
59310;SDS011;45078;51.654;21.250;2024-02-26T03:49:43;19.52;;;8.30;;
59310;SDS011;45078;51.654;21.250;2024-02-26T03:52:09;14.45;;;7.30;;
59310;SDS011;45078;51.654;21.250;2024-02-26T03:54:35;18.45;;;7.68;;
59310;SDS011;45078;51.654;21.250;2024-02-26T03:57:01;14.63;;;7.43;;
59310;SDS011;45078;51.654;21.250;2024-02-26T03:59:26;16.92;;;8.40;;
59310;SDS011;45078;51.654;21.250;2024-02-26T04:01:52;16.02;;;7.68;;
59310;SDS011;45078;51.654;21.250;2024-02-26T04:04:18;15.73;;;6.82;;
59310;SDS011;45078;51.654;21.250;2024-02-26T04:06:46;14.15;;;6.93;;
59310;SDS011;45078;51.654;21.250;2024-02-26T04:09:14;15.15;;;7.53;;
59310;SDS011;45078;51.654;21.250;2024-02-26T04:11:40;18.05;;;7.57;;
59310;SDS011;45078;51.654;21.250;2024-02-26T04:14:08;15.40;;;7.80;;
59310;SDS011;45078;51.654;21.250;2024-02-26T04:16:34;18.92;;;7.38;;
59310;SDS011;45078;51.654;21.250;2024-02-26T04:19:02;15.27;;;6.80;;
59310;SDS011;45078;51.654;21.250;2024-02-26T04:21:28;17.50;;;7.57;;
59310;SDS011;45078;51.654;21.250;2024-02-26T04:23:54;16.90;;;7.65;;
59310;SDS011;45078;51.654;21.250;2024-02-26T04:26:25;20.45;;;8.15;;
59310;SDS011;45078;51.654;21.250;2024-02-26T04:28:51;21.23;;;8.13;;
59310;SDS011;45078;51.654;21.250;2024-02-26T04:31:18;37.67;;;12.30;;
59310;SDS011;45078;51.654;21.250;2024-02-26T04:33:43;33.38;;;11.30;;
59310;SDS011;45078;51.654;21.250;2024-02-26T04:36:15;41.45;;;12.52;;
59310;SDS011;45078;51.654;21.250;2024-02-26T04:38:42;39.78;;;13.55;;
59310;SDS011;45078;51.654;21.250;2024-02-26T04:41:10;35.78;;;11.32;;
59310;SDS011;45078;51.654;21.250;2024-02-26T04:43:37;23.77;;;9.27;;
59310;SDS011;45078;51.654;21.250;2024-02-26T04:46:06;31.45;;;11.73;;
59310;SDS011;45078;51.654;21.250;2024-02-26T04:48:33;23.88;;;9.93;;
59310;SDS011;45078;51.654;21.250;2024-02-26T04:50:59;26.10;;;9.50;;
59310;SDS011;45078;51.654;21.250;2024-02-26T04:53:26;28.40;;;9.52;;
59310;SDS011;45078;51.654;21.250;2024-02-26T04:55:52;20.88;;;8.68;;
59310;SDS011;45078;51.654;21.250;2024-02-26T04:58:17;20.63;;;8.77;;
59310;SDS011;45078;51.654;21.250;2024-02-26T05:00:43;16.48;;;9.02;;
59310;SDS011;45078;51.654;21.250;2024-02-26T05:03:09;14.30;;;8.05;;
59310;SDS011;45078;51.654;21.250;2024-02-26T05:05:38;19.90;;;8.93;;
59310;SDS011;45078;51.654;21.250;2024-02-26T05:08:05;21.70;;;8.77;;
59310;SDS011;45078;51.654;21.250;2024-02-26T05:10:32;18.00;;;8.95;;
59310;SDS011;45078;51.654;21.250;2024-02-26T05:12:58;17.67;;;8.45;;
59310;SDS011;45078;51.654;21.250;2024-02-26T05:15:24;24.27;;;8.80;;
59310;SDS011;45078;51.654;21.250;2024-02-26T05:17:49;20.60;;;10.25;;
59310;SDS011;45078;51.654;21.250;2024-02-26T05:20:15;17.00;;;8.70;;
59310;SDS011;45078;51.654;21.250;2024-02-26T05:22:41;17.35;;;8.82;;
59310;SDS011;45078;51.654;21.250;2024-02-26T05:25:07;20.05;;;9.25;;
59310;SDS011;45078;51.654;21.250;2024-02-26T05:27:33;22.35;;;9.70;;
59310;SDS011;45078;51.654;21.250;2024-02-26T05:29:58;40.17;;;17.20;;
59310;SDS011;45078;51.654;21.250;2024-02-26T05:32:24;32.35;;;11.15;;
59310;SDS011;45078;51.654;21.250;2024-02-26T05:34:50;18.95;;;9.90;;
59310;SDS011;45078;51.654;21.250;2024-02-26T05:37:15;19.25;;;9.25;;
59310;SDS011;45078;51.654;21.250;2024-02-26T05:39:41;16.92;;;8.15;;
59310;SDS011;45078;51.654;21.250;2024-02-26T05:42:07;20.40;;;9.95;;
59310;SDS011;45078;51.654;21.250;2024-02-26T05:44:34;21.35;;;9.57;;
59310;SDS011;45078;51.654;21.250;2024-02-26T05:46:59;19.85;;;9.50;;
59310;SDS011;45078;51.654;21.250;2024-02-26T05:49:25;19.75;;;10.10;;
59310;SDS011;45078;51.654;21.250;2024-02-26T05:51:51;20.13;;;9.02;;
59310;SDS011;45078;51.654;21.250;2024-02-26T05:54:16;20.83;;;9.55;;
59310;SDS011;45078;51.654;21.250;2024-02-26T05:56:42;21.48;;;9.60;;
59310;SDS011;45078;51.654;21.250;2024-02-26T05:59:08;21.67;;;8.95;;
59310;SDS011;45078;51.654;21.250;2024-02-26T06:01:33;18.30;;;9.35;;
59310;SDS011;45078;51.654;21.250;2024-02-26T06:03:59;22.90;;;10.18;;
59310;SDS011;45078;51.654;21.250;2024-02-26T06:06:25;21.38;;;9.73;;
59310;SDS011;45078;51.654;21.250;2024-02-26T06:08:50;21.05;;;10.27;;
59310;SDS011;45078;51.654;21.250;2024-02-26T06:11:16;20.67;;;10.68;;
59310;SDS011;45078;51.654;21.250;2024-02-26T06:13:42;24.38;;;11.65;;
59310;SDS011;45078;51.654;21.250;2024-02-26T06:16:08;30.02;;;11.95;;
59310;SDS011;45078;51.654;21.250;2024-02-26T06:18:34;22.08;;;10.75;;
59310;SDS011;45078;51.654;21.250;2024-02-26T06:21:00;27.13;;;10.85;;
59310;SDS011;45078;51.654;21.250;2024-02-26T06:23:25;21.50;;;10.77;;
59310;SDS011;45078;51.654;21.250;2024-02-26T06:25:51;18.70;;;9.55;;
59310;SDS011;45078;51.654;21.250;2024-02-26T06:28:17;16.35;;;9.30;;
59310;SDS011;45078;51.654;21.250;2024-02-26T06:30:43;19.10;;;9.95;;
59310;SDS011;45078;51.654;21.250;2024-02-26T06:33:09;18.98;;;9.27;;
59310;SDS011;45078;51.654;21.250;2024-02-26T06:35:35;17.00;;;9.60;;
59310;SDS011;45078;51.654;21.250;2024-02-26T06:38:01;19.50;;;10.60;;
59310;SDS011;45078;51.654;21.250;2024-02-26T06:40:27;20.33;;;10.23;;
59310;SDS011;45078;51.654;21.250;2024-02-26T06:42:53;19.25;;;10.73;;
59310;SDS011;45078;51.654;21.250;2024-02-26T06:45:18;18.40;;;9.48;;
59310;SDS011;45078;51.654;21.250;2024-02-26T06:47:47;20.15;;;9.48;;
59310;SDS011;45078;51.654;21.250;2024-02-26T06:50:12;14.70;;;8.60;;
59310;SDS011;45078;51.654;21.250;2024-02-26T06:52:38;20.10;;;10.48;;
59310;SDS011;45078;51.654;21.250;2024-02-26T06:55:04;17.95;;;9.63;;
59310;SDS011;45078;51.654;21.250;2024-02-26T06:57:33;19.40;;;10.20;;
59310;SDS011;45078;51.654;21.250;2024-02-26T06:59:58;16.80;;;9.73;;
59310;SDS011;45078;51.654;21.250;2024-02-26T07:02:24;21.55;;;10.55;;
59310;SDS011;45078;51.654;21.250;2024-02-26T07:04:50;17.65;;;9.50;;
59310;SDS011;45078;51.654;21.250;2024-02-26T07:07:16;17.15;;;9.73;;
59310;SDS011;45078;51.654;21.250;2024-02-26T07:09:43;17.98;;;10.25;;
59310;SDS011;45078;51.654;21.250;2024-02-26T07:12:08;18.75;;;10.43;;
59310;SDS011;45078;51.654;21.250;2024-02-26T07:14:34;19.17;;;10.50;;
59310;SDS011;45078;51.654;21.250;2024-02-26T07:17:02;19.58;;;9.98;;
59310;SDS011;45078;51.654;21.250;2024-02-26T07:19:28;18.10;;;10.18;;
59310;SDS011;45078;51.654;21.250;2024-02-26T07:21:54;18.55;;;10.32;;
59310;SDS011;45078;51.654;21.250;2024-02-26T07:24:20;19.92;;;10.65;;
59310;SDS011;45078;51.654;21.250;2024-02-26T07:26:46;19.50;;;11.05;;
59310;SDS011;45078;51.654;21.250;2024-02-26T07:29:12;20.90;;;10.45;;
59310;SDS011;45078;51.654;21.250;2024-02-26T07:31:37;21.23;;;10.70;;
59310;SDS011;45078;51.654;21.250;2024-02-26T07:34:03;20.60;;;10.93;;
59310;SDS011;45078;51.654;21.250;2024-02-26T07:36:29;21.23;;;11.18;;
59310;SDS011;45078;51.654;21.250;2024-02-26T07:38:54;20.58;;;12.18;;
59310;SDS011;45078;51.654;21.250;2024-02-26T07:41:20;22.80;;;10.70;;
59310;SDS011;45078;51.654;21.250;2024-02-26T07:43:46;20.15;;;10.35;;
59310;SDS011;45078;51.654;21.250;2024-02-26T07:46:12;20.40;;;10.40;;
59310;SDS011;45078;51.654;21.250;2024-02-26T07:48:37;21.83;;;11.18;;
59310;SDS011;45078;51.654;21.250;2024-02-26T07:51:03;24.38;;;11.43;;
59310;SDS011;45078;51.654;21.250;2024-02-26T07:53:29;21.15;;;11.23;;
59310;SDS011;45078;51.654;21.250;2024-02-26T07:55:56;16.73;;;8.60;;
59310;SDS011;45078;51.654;21.250;2024-02-26T07:58:22;21.63;;;12.25;;
59310;SDS011;45078;51.654;21.250;2024-02-26T08:00:48;18.52;;;9.93;;
59310;SDS011;45078;51.654;21.250;2024-02-26T08:03:14;25.85;;;11.18;;
59310;SDS011;45078;51.654;21.250;2024-02-26T08:05:41;20.25;;;10.75;;
59310;SDS011;45078;51.654;21.250;2024-02-26T08:08:08;18.15;;;9.10;;
59310;SDS011;45078;51.654;21.250;2024-02-26T08:10:34;20.35;;;10.88;;
59310;SDS011;45078;51.654;21.250;2024-02-26T08:13:00;18.17;;;9.70;;
59310;SDS011;45078;51.654;21.250;2024-02-26T08:15:33;19.33;;;10.27;;
59310;SDS011;45078;51.654;21.250;2024-02-26T08:18:00;18.20;;;10.73;;
59310;SDS011;45078;51.654;21.250;2024-02-26T08:20:28;20.15;;;10.02;;
59310;SDS011;45078;51.654;21.250;2024-02-26T08:22:57;15.05;;;6.97;;
59310;SDS011;45078;51.654;21.250;2024-02-26T08:25:23;16.77;;;8.98;;
59310;SDS011;45078;51.654;21.250;2024-02-26T08:27:49;20.98;;;10.38;;
59310;SDS011;45078;51.654;21.250;2024-02-26T08:30:15;18.75;;;9.60;;
59310;SDS011;45078;51.654;21.250;2024-02-26T08:32:45;12.40;;;7.53;;
59310;SDS011;45078;51.654;21.250;2024-02-26T08:35:11;15.00;;;8.60;;
59310;SDS011;45078;51.654;21.250;2024-02-26T08:37:36;17.70;;;7.95;;
59310;SDS011;45078;51.654;21.250;2024-02-26T08:40:02;16.02;;;7.78;;
59310;SDS011;45078;51.654;21.250;2024-02-26T08:42:29;13.13;;;7.38;;
59310;SDS011;45078;51.654;21.250;2024-02-26T08:44:55;14.07;;;7.40;;
59310;SDS011;45078;51.654;21.250;2024-02-26T08:47:20;11.00;;;6.20;;
59310;SDS011;45078;51.654;21.250;2024-02-26T08:49:46;13.13;;;7.55;;
59310;SDS011;45078;51.654;21.250;2024-02-26T08:52:12;11.43;;;6.40;;
59310;SDS011;45078;51.654;21.250;2024-02-26T08:54:38;12.52;;;6.25;;
59310;SDS011;45078;51.654;21.250;2024-02-26T08:57:05;8.27;;;4.88;;
59310;SDS011;45078;51.654;21.250;2024-02-26T08:59:31;6.65;;;3.78;;
59310;SDS011;45078;51.654;21.250;2024-02-26T09:01:56;8.25;;;4.75;;
59310;SDS011;45078;51.654;21.250;2024-02-26T09:04:22;6.30;;;3.85;;
59310;SDS011;45078;51.654;21.250;2024-02-26T09:06:48;6.30;;;3.55;;
59310;SDS011;45078;51.654;21.250;2024-02-26T09:09:14;8.80;;;4.80;;
59310;SDS011;45078;51.654;21.250;2024-02-26T09:11:40;7.82;;;4.65;;
59310;SDS011;45078;51.654;21.250;2024-02-26T09:14:05;6.80;;;4.15;;
59310;SDS011;45078;51.654;21.250;2024-02-26T09:16:31;7.38;;;3.95;;
59310;SDS011;45078;51.654;21.250;2024-02-26T09:18:57;7.43;;;4.28;;
59310;SDS011;45078;51.654;21.250;2024-02-26T09:21:22;7.32;;;4.75;;
59310;SDS011;45078;51.654;21.250;2024-02-26T09:23:50;6.72;;;4.25;;
59310;SDS011;45078;51.654;21.250;2024-02-26T09:26:15;8.52;;;4.70;;
59310;SDS011;45078;51.654;21.250;2024-02-26T09:28:42;4.47;;;3.30;;
59310;SDS011;45078;51.654;21.250;2024-02-26T09:31:08;6.22;;;3.70;;
59310;SDS011;45078;51.654;21.250;2024-02-26T09:33:33;6.00;;;3.88;;
59310;SDS011;45078;51.654;21.250;2024-02-26T09:35:59;7.90;;;4.40;;
59310;SDS011;45078;51.654;21.250;2024-02-26T09:38:28;7.13;;;4.35;;
59310;SDS011;45078;51.654;21.250;2024-02-26T09:40:56;7.25;;;4.18;;
59310;SDS011;45078;51.654;21.250;2024-02-26T09:43:23;6.20;;;4.00;;
59310;SDS011;45078;51.654;21.250;2024-02-26T09:45:52;6.18;;;3.85;;
59310;SDS011;45078;51.654;21.250;2024-02-26T09:48:19;5.53;;;3.28;;
59310;SDS011;45078;51.654;21.250;2024-02-26T09:50:46;5.90;;;4.18;;
59310;SDS011;45078;51.654;21.250;2024-02-26T09:53:12;6.72;;;3.70;;
59310;SDS011;45078;51.654;21.250;2024-02-26T09:55:39;6.25;;;3.80;;
59310;SDS011;45078;51.654;21.250;2024-02-26T09:58:06;6.88;;;4.28;;
59310;SDS011;45078;51.654;21.250;2024-02-26T10:00:34;7.18;;;4.35;;
59310;SDS011;45078;51.654;21.250;2024-02-26T10:03:03;5.72;;;3.85;;
59310;SDS011;45078;51.654;21.250;2024-02-26T10:05:31;6.65;;;4.20;;
59310;SDS011;45078;51.654;21.250;2024-02-26T10:07:58;6.20;;;4.15;;
59310;SDS011;45078;51.654;21.250;2024-02-26T10:10:27;6.43;;;4.10;;
59310;SDS011;45078;51.654;21.250;2024-02-26T10:12:54;6.50;;;4.15;;
59310;SDS011;45078;51.654;21.250;2024-02-26T10:15:20;5.18;;;3.50;;
59310;SDS011;45078;51.654;21.250;2024-02-26T10:17:46;5.15;;;3.13;;
59310;SDS011;45078;51.654;21.250;2024-02-26T10:22:40;6.57;;;4.10;;
59310;SDS011;45078;51.654;21.250;2024-02-26T10:25:06;3.97;;;2.75;;
59310;SDS011;45078;51.654;21.250;2024-02-26T10:27:33;5.07;;;3.33;;
59310;SDS011;45078;51.654;21.250;2024-02-26T10:30:03;6.20;;;3.85;;
59310;SDS011;45078;51.654;21.250;2024-02-26T10:32:30;4.65;;;3.17;;
59310;SDS011;45078;51.654;21.250;2024-02-26T10:34:57;5.28;;;3.42;;
59310;SDS011;45078;51.654;21.250;2024-02-26T10:37:22;4.97;;;3.13;;
59310;SDS011;45078;51.654;21.250;2024-02-26T10:39:50;7.57;;;3.40;;
59310;SDS011;45078;51.654;21.250;2024-02-26T10:42:15;4.72;;;3.30;;
59310;SDS011;45078;51.654;21.250;2024-02-26T10:44:44;4.72;;;2.92;;
59310;SDS011;45078;51.654;21.250;2024-02-26T10:47:10;3.85;;;2.47;;
59310;SDS011;45078;51.654;21.250;2024-02-26T10:49:36;8.30;;;3.30;;
59310;SDS011;45078;51.654;21.250;2024-02-26T10:52:02;3.72;;;2.58;;
59310;SDS011;45078;51.654;21.250;2024-02-26T10:54:31;4.68;;;3.05;;
59310;SDS011;45078;51.654;21.250;2024-02-26T10:56:58;4.07;;;2.63;;
59310;SDS011;45078;51.654;21.250;2024-02-26T10:59:25;4.18;;;2.70;;
59310;SDS011;45078;51.654;21.250;2024-02-26T11:01:51;10.20;;;2.85;;
59310;SDS011;45078;51.654;21.250;2024-02-26T11:04:17;5.00;;;3.17;;
59310;SDS011;45078;51.654;21.250;2024-02-26T11:06:46;5.63;;;3.35;;
59310;SDS011;45078;51.654;21.250;2024-02-26T11:09:14;4.63;;;2.95;;
59310;SDS011;45078;51.654;21.250;2024-02-26T11:11:41;4.72;;;2.92;;
59310;SDS011;45078;51.654;21.250;2024-02-26T11:14:08;4.68;;;3.28;;
59310;SDS011;45078;51.654;21.250;2024-02-26T11:16:35;4.38;;;2.50;;
59310;SDS011;45078;51.654;21.250;2024-02-26T11:19:02;4.50;;;2.80;;
59310;SDS011;45078;51.654;21.250;2024-02-26T11:21:28;4.72;;;3.05;;
59310;SDS011;45078;51.654;21.250;2024-02-26T11:24:12;6.82;;;4.00;;
59310;SDS011;45078;51.654;21.250;2024-02-26T11:26:43;6.10;;;3.65;;
59310;SDS011;45078;51.654;21.250;2024-02-26T11:29:14;6.65;;;3.63;;
59310;SDS011;45078;51.654;21.250;2024-02-26T11:31:46;5.47;;;3.45;;
59310;SDS011;45078;51.654;21.250;2024-02-26T11:34:12;4.90;;;3.10;;
59310;SDS011;45078;51.654;21.250;2024-02-26T11:36:38;5.18;;;3.10;;
59310;SDS011;45078;51.654;21.250;2024-02-26T11:39:04;5.45;;;3.15;;
59310;SDS011;45078;51.654;21.250;2024-02-26T11:41:31;5.93;;;3.88;;
59310;SDS011;45078;51.654;21.250;2024-02-26T11:43:58;6.25;;;3.67;;
59310;SDS011;45078;51.654;21.250;2024-02-26T11:46:33;5.20;;;3.60;;
59310;SDS011;45078;51.654;21.250;2024-02-26T11:52:04;7.78;;;3.92;;
59310;SDS011;45078;51.654;21.250;2024-02-26T11:57:19;6.50;;;3.80;;
59310;SDS011;45078;51.654;21.250;2024-02-26T11:59:48;7.05;;;3.20;;
59310;SDS011;45078;51.654;21.250;2024-02-26T12:05:07;5.68;;;3.40;;
59310;SDS011;45078;51.654;21.250;2024-02-26T12:07:39;5.43;;;3.20;;
59310;SDS011;45078;51.654;21.250;2024-02-26T12:15:39;4.07;;;2.40;;
59310;SDS011;45078;51.654;21.250;2024-02-26T12:18:05;5.03;;;3.22;;
59310;SDS011;45078;51.654;21.250;2024-02-26T12:20:38;4.95;;;3.08;;
59310;SDS011;45078;51.654;21.250;2024-02-26T12:23:04;6.45;;;3.00;;
59310;SDS011;45078;51.654;21.250;2024-02-26T12:25:30;5.22;;;2.85;;
59310;SDS011;45078;51.654;21.250;2024-02-26T12:27:58;5.60;;;2.88;;
59310;SDS011;45078;51.654;21.250;2024-02-26T12:30:24;3.53;;;2.20;;
59310;SDS011;45078;51.654;21.250;2024-02-26T12:32:55;4.82;;;2.90;;
59310;SDS011;45078;51.654;21.250;2024-02-26T12:35:22;5.65;;;2.75;;
59310;SDS011;45078;51.654;21.250;2024-02-26T12:37:49;4.25;;;3.00;;
59310;SDS011;45078;51.654;21.250;2024-02-26T12:40:16;5.00;;;2.90;;
59310;SDS011;45078;51.654;21.250;2024-02-26T12:42:43;7.30;;;3.20;;
59310;SDS011;45078;51.654;21.250;2024-02-26T12:45:10;4.88;;;3.10;;
59310;SDS011;45078;51.654;21.250;2024-02-26T12:47:37;3.97;;;2.65;;
59310;SDS011;45078;51.654;21.250;2024-02-26T12:50:03;5.97;;;3.17;;
59310;SDS011;45078;51.654;21.250;2024-02-26T12:52:33;6.43;;;3.20;;
59310;SDS011;45078;51.654;21.250;2024-02-26T12:55:19;5.65;;;3.58;;
59310;SDS011;45078;51.654;21.250;2024-02-26T12:57:46;8.40;;;3.10;;
59310;SDS011;45078;51.654;21.250;2024-02-26T13:00:15;4.65;;;3.38;;
59310;SDS011;45078;51.654;21.250;2024-02-26T13:02:43;6.28;;;3.40;;
59310;SDS011;45078;51.654;21.250;2024-02-26T13:05:10;5.47;;;3.38;;
59310;SDS011;45078;51.654;21.250;2024-02-26T13:07:44;5.88;;;3.65;;
59310;SDS011;45078;51.654;21.250;2024-02-26T13:10:12;6.60;;;3.25;;
59310;SDS011;45078;51.654;21.250;2024-02-26T13:12:45;6.28;;;3.00;;
59310;SDS011;45078;51.654;21.250;2024-02-26T13:15:19;6.00;;;3.70;;
59310;SDS011;45078;51.654;21.250;2024-02-26T13:17:46;7.50;;;4.03;;
59310;SDS011;45078;51.654;21.250;2024-02-26T13:20:13;5.32;;;3.20;;
59310;SDS011;45078;51.654;21.250;2024-02-26T13:23:00;6.07;;;3.38;;
59310;SDS011;45078;51.654;21.250;2024-02-26T13:25:27;5.40;;;3.13;;
59310;SDS011;45078;51.654;21.250;2024-02-26T13:27:53;6.07;;;3.83;;
59310;SDS011;45078;51.654;21.250;2024-02-26T13:30:52;6.30;;;4.07;;
59310;SDS011;45078;51.654;21.250;2024-02-26T13:33:18;8.68;;;3.50;;
59310;SDS011;45078;51.654;21.250;2024-02-26T13:35:45;7.68;;;4.03;;
59310;SDS011;45078;51.654;21.250;2024-02-26T13:38:11;7.97;;;4.30;;
59310;SDS011;45078;51.654;21.250;2024-02-26T13:40:37;7.05;;;3.83;;
59310;SDS011;45078;51.654;21.250;2024-02-26T13:43:04;7.07;;;3.85;;
59310;SDS011;45078;51.654;21.250;2024-02-26T13:45:30;8.10;;;4.22;;
59310;SDS011;45078;51.654;21.250;2024-02-26T13:48:02;8.23;;;4.80;;
59310;SDS011;45078;51.654;21.250;2024-02-26T13:50:29;8.63;;;5.00;;
59310;SDS011;45078;51.654;21.250;2024-02-26T13:52:55;10.05;;;4.97;;
59310;SDS011;45078;51.654;21.250;2024-02-26T13:55:22;10.55;;;4.80;;
59310;SDS011;45078;51.654;21.250;2024-02-26T13:57:51;8.20;;;4.63;;
59310;SDS011;45078;51.654;21.250;2024-02-26T14:00:18;9.43;;;5.15;;
59310;SDS011;45078;51.654;21.250;2024-02-26T14:02:44;9.85;;;5.40;;
59310;SDS011;45078;51.654;21.250;2024-02-26T14:05:10;8.00;;;5.30;;
59310;SDS011;45078;51.654;21.250;2024-02-26T14:07:36;11.20;;;5.80;;
59310;SDS011;45078;51.654;21.250;2024-02-26T14:10:01;9.98;;;5.82;;
59310;SDS011;45078;51.654;21.250;2024-02-26T14:12:27;10.65;;;6.10;;
59310;SDS011;45078;51.654;21.250;2024-02-26T14:14:53;9.10;;;5.47;;
59310;SDS011;45078;51.654;21.250;2024-02-26T14:17:20;10.25;;;5.10;;
59310;SDS011;45078;51.654;21.250;2024-02-26T14:19:47;10.23;;;5.07;;
59310;SDS011;45078;51.654;21.250;2024-02-26T14:22:13;8.45;;;5.50;;
59310;SDS011;45078;51.654;21.250;2024-02-26T14:24:41;9.30;;;5.43;;
59310;SDS011;45078;51.654;21.250;2024-02-26T14:27:10;9.65;;;5.75;;
59310;SDS011;45078;51.654;21.250;2024-02-26T14:29:42;10.90;;;5.93;;
59310;SDS011;45078;51.654;21.250;2024-02-26T14:32:11;10.50;;;5.32;;
59310;SDS011;45078;51.654;21.250;2024-02-26T14:34:37;10.90;;;6.07;;
59310;SDS011;45078;51.654;21.250;2024-02-26T14:37:03;8.98;;;5.50;;